Terminal Aerodrome Forecast
Issued by NWS St Louis, MO

Home | Current Version | Previous Version | Text Only | Print | Product List | Glossary On
Versions: 1 2 3 4 5 6 7 8 9 10 11 12 13 14 15 16 17 18 19 20 21 22 23 24 25 26 27
757
FTUS43 KLSX 102114 AAA
TAFSTL
TAF AMD
KSTL 102114Z 1021/1124 VRB04KT 3SM -SN SCT015 OVC025
      TEMPO 1021/1023 2SM -SN OVC010
     FM110100 06005KT P6SM BKN025
     FM111100 05006KT P6SM BKN035=

USA.gov is the U.S. government's official web portal to all federal, state and local government web resources and services.